createdAt,value
2022-11-05T00:03:58.642Z,18.29
2022-11-05T00:06:26.915Z,18.28
2022-11-05T00:08:54.073Z,18.29
2022-11-05T00:11:20.979Z,18.24
2022-11-05T00:13:48.572Z,18.21
2022-11-05T00:16:15.486Z,18.12
2022-11-05T00:18:42.371Z,18.08
2022-11-05T00:21:09.959Z,18.04
2022-11-05T00:23:38.428Z,18.06
2022-11-05T00:26:08.028Z,18.09
2022-11-05T00:28:35.491Z,18.16
2022-11-05T00:31:05.413Z,18.25
2022-11-05T00:33:33.703Z,18.30
2022-11-05T00:36:02.823Z,18.36
2022-11-05T00:38:30.175Z,18.42
2022-11-05T00:40:58.743Z,18.33
2022-11-05T00:43:25.699Z,18.28
2022-11-05T00:45:52.717Z,18.24
2022-11-05T00:48:19.598Z,18.16
2022-11-05T00:50:46.454Z,18.18
2022-11-05T00:53:13.800Z,18.18
2022-11-05T00:55:42.912Z,18.24
2022-11-05T00:58:14.259Z,18.28
2022-11-05T01:00:49.092Z,18.35
2022-11-05T01:03:18.707Z,18.37
2022-11-05T01:05:48.408Z,18.42
2022-11-05T01:08:19.968Z,18.45
2022-11-05T01:10:49.570Z,18.42
2022-11-05T01:13:21.675Z,18.45
2022-11-05T01:15:49.203Z,18.46
2022-11-05T01:18:16.276Z,18.45
2022-11-05T01:20:44.383Z,18.42
2022-11-05T01:23:13.747Z,18.36
2022-11-05T01:25:42.143Z,18.32
2022-11-05T01:28:09.835Z,18.24
2022-11-05T01:30:39.080Z,18.22
2022-11-05T01:33:06.676Z,18.19
2022-11-05T01:35:33.723Z,18.12
2022-11-05T01:38:00.686Z,18.09
2022-11-05T01:40:27.829Z,18.08
2022-11-05T01:42:55.156Z,18.08
2022-11-05T01:45:25.032Z,18.02
2022-11-05T01:48:03.041Z,18.01
2022-11-05T01:50:49.009Z,17.91
2022-11-05T01:53:24.132Z,17.85
2022-11-05T01:55:58.793Z,17.88
2022-11-05T01:58:34.512Z,17.81
2022-11-05T02:04:02.804Z,17.86
2022-11-05T02:06:32.823Z,17.78
2022-11-05T02:09:06.521Z,17.74
2022-11-05T02:11:34.190Z,17.60
2022-11-05T02:14:01.314Z,17.51
2022-11-05T02:16:41.152Z,17.54
2022-11-05T02:19:49.352Z,17.54
2022-11-05T02:22:44.483Z,17.38
2022-11-05T02:25:46.224Z,17.33
2022-11-05T02:28:41.112Z,17.20
2022-11-05T02:31:22.183Z,17.13
2022-11-05T02:34:30.576Z,17.03
2022-11-05T02:37:09.293Z,17.03
2022-11-05T02:39:48.472Z,16.99
2022-11-05T02:42:30.122Z,16.97
2022-11-05T02:45:10.378Z,16.96
2022-11-05T02:47:45.199Z,16.86
2022-11-05T02:50:24.461Z,16.86
2022-11-05T02:53:01.307Z,16.83
2022-11-05T02:55:37.084Z,16.85
2022-11-05T02:58:04.872Z,16.85
2022-11-05T03:00:48.771Z,16.93
2022-11-05T03:03:29.408Z,16.94
2022-11-05T03:06:38.891Z,16.94
2022-11-05T03:09:59.532Z,16.87
2022-11-05T03:12:42.637Z,16.87
2022-11-05T03:15:26.590Z,16.90
2022-11-05T03:18:06.522Z,16.93
2022-11-05T03:20:41.141Z,16.96
2022-11-05T03:23:21.563Z,17.02
2022-11-05T03:25:53.892Z,17.09
2022-11-05T03:28:24.123Z,17.09
2022-11-05T03:30:54.528Z,17.13
2022-11-05T03:33:29.764Z,17.26
2022-11-05T03:36:03.397Z,17.30
2022-11-05T03:38:36.686Z,17.28
2022-11-05T03:41:09.989Z,17.27
2022-11-05T03:43:41.340Z,17.20
2022-11-05T03:46:14.944Z,17.20
2022-11-05T03:48:49.232Z,17.23
2022-11-05T03:51:35.553Z,17.26
2022-11-05T03:54:05.298Z,17.19
2022-11-05T03:56:40.196Z,17.20
2022-11-05T03:59:09.909Z,17.17
2022-11-05T04:01:38.409Z,17.16
2022-11-05T04:04:09.727Z,17.19
2022-11-05T04:06:38.032Z,17.16
2022-11-05T04:09:04.884Z,17.17
2022-11-05T04:11:32.175Z,17.16
2022-11-05T04:13:59.179Z,17.16
2022-11-05T04:16:31.395Z,17.16
2022-11-05T04:18:59.439Z,17.16
2022-11-05T04:21:26.469Z,17.12
2022-11-05T04:23:56.204Z,17.10
2022-11-05T04:26:23.195Z,17.10
2022-11-05T04:28:50.349Z,17.10
2022-11-05T04:31:17.285Z,17.12
2022-11-05T04:36:35.291Z,17.10
2022-11-05T04:39:03.806Z,17.10
2022-11-05T04:41:30.832Z,17.03
2022-11-05T04:43:57.899Z,17.00
2022-11-05T04:46:24.776Z,16.97
2022-11-05T04:48:52.450Z,16.92
2022-11-05T04:51:19.479Z,16.89
2022-11-05T04:53:46.404Z,16.87
2022-11-05T04:56:20.356Z,16.92
2022-11-05T04:58:48.140Z,16.90
2022-11-05T05:01:17.441Z,16.90
2022-11-05T05:03:46.841Z,16.89
2022-11-05T05:06:13.773Z,16.89
2022-11-05T05:08:41.014Z,16.90
2022-11-05T05:11:12.088Z,16.93
2022-11-05T05:13:40.465Z,16.93
2022-11-05T05:16:09.763Z,16.94
2022-11-05T05:18:36.584Z,16.89
2022-11-05T05:21:04.263Z,16.87
2022-11-05T05:23:31.275Z,16.86
2022-11-05T05:25:59.350Z,16.83
2022-11-05T05:28:27.223Z,16.79
2022-11-05T05:30:59.840Z,16.75
2022-11-05T05:33:27.202Z,16.75
2022-11-05T05:35:56.843Z,16.73
2022-11-05T05:38:24.161Z,16.69
2022-11-05T05:40:52.474Z,16.68
2022-11-05T05:43:19.448Z,16.66
2022-11-05T05:45:46.450Z,16.69
2022-11-05T05:48:14.836Z,16.68
2022-11-05T05:50:44.041Z,16.69
2022-11-05T05:53:11.167Z,16.69
2022-11-05T05:55:38.157Z,16.71
2022-11-05T05:58:05.203Z,16.68
2022-11-05T06:00:32.040Z,16.71
2022-11-05T06:02:59.142Z,16.65
2022-11-05T06:05:28.162Z,16.65
2022-11-05T06:07:56.431Z,16.66
2022-11-05T06:10:51.324Z,16.58
2022-11-05T06:13:18.365Z,16.58
2022-11-05T06:15:45.357Z,16.59
2022-11-05T06:18:12.258Z,16.55
2022-11-05T06:20:40.659Z,16.56
2022-11-05T06:23:08.679Z,16.58
2022-11-05T06:25:40.914Z,16.49
2022-11-05T06:28:08.093Z,16.35
2022-11-05T06:30:35.252Z,16.26
2022-11-05T06:33:03.778Z,16.28
2022-11-05T06:35:31.424Z,16.24
2022-11-05T06:38:00.909Z,16.15
2022-11-05T06:40:28.426Z,16.11
2022-11-05T06:42:55.488Z,16.01
2022-11-05T06:45:22.378Z,15.94
2022-11-05T06:47:56.233Z,15.98
2022-11-05T06:50:24.076Z,15.90
2022-11-05T06:52:55.693Z,15.87
2022-11-05T06:55:25.121Z,15.74
2022-11-05T06:57:52.249Z,15.77
2022-11-05T07:00:19.635Z,15.76
2022-11-05T07:02:47.437Z,15.76
2022-11-05T07:05:15.651Z,15.67
2022-11-05T07:07:45.309Z,15.67
2022-11-05T07:10:14.992Z,15.76
2022-11-05T07:12:43.475Z,15.86
2022-11-05T07:15:12.374Z,15.81
2022-11-05T07:17:39.554Z,15.86
2022-11-05T07:20:09.882Z,15.96
2022-11-05T07:22:37.519Z,15.91
2022-11-05T07:25:06.136Z,15.94
2022-11-05T07:27:37.995Z,16.07
2022-11-05T07:30:09.210Z,16.14
2022-11-05T07:32:39.860Z,16.14
2022-11-05T07:35:09.134Z,16.17
2022-11-05T07:37:43.027Z,16.25
2022-11-05T07:40:11.459Z,16.35
2022-11-05T07:42:41.163Z,16.41
2022-11-05T07:45:11.378Z,16.52
2022-11-05T07:47:38.536Z,16.62
2022-11-05T07:50:06.759Z,16.68
2022-11-05T07:52:33.838Z,16.73
2022-11-05T07:55:00.727Z,16.85
2022-11-05T07:57:27.635Z,16.99
2022-11-05T07:59:54.738Z,17.00
2022-11-05T08:02:23.331Z,16.99
2022-11-05T08:04:50.533Z,16.94
2022-11-05T08:07:17.363Z,17.09
2022-11-05T08:09:44.302Z,17.16
2022-11-05T08:12:11.498Z,17.24
2022-11-05T08:14:38.347Z,17.27
2022-11-05T08:19:58.103Z,17.37
2022-11-05T08:22:26.009Z,17.43
2022-11-05T08:24:52.835Z,17.50
2022-11-05T08:27:19.709Z,17.73
2022-11-05T08:29:46.862Z,17.96
2022-11-05T08:32:13.825Z,18.08
2022-11-05T08:34:40.804Z,18.19
2022-11-05T08:37:09.121Z,18.35
2022-11-05T08:39:36.216Z,18.53
2022-11-05T08:42:03.217Z,18.83
2022-11-05T08:44:30.215Z,19.14
2022-11-05T08:46:57.333Z,19.27
2022-11-05T08:49:24.163Z,19.55
2022-11-05T08:51:51.329Z,19.72
2022-11-05T08:54:19.526Z,19.99
2022-11-05T08:56:46.391Z,20.27
2022-11-05T08:59:13.284Z,20.67
2022-11-05T09:01:40.271Z,20.82
2022-11-05T09:04:07.072Z,20.95
2022-11-05T09:06:34.180Z,21.02
2022-11-05T09:09:01.385Z,21.16
2022-11-05T09:11:49.969Z,21.28
2022-11-05T09:14:16.886Z,21.33
2022-11-05T09:16:43.805Z,21.35
2022-11-05T09:19:10.805Z,21.35
2022-11-05T09:21:37.679Z,21.46
2022-11-05T09:24:04.994Z,21.47
2022-11-05T09:26:33.388Z,21.54
2022-11-05T09:29:00.193Z,21.59
2022-11-05T09:31:26.973Z,21.47
2022-11-05T09:33:53.859Z,21.41
2022-11-05T09:36:20.612Z,21.18
2022-11-05T09:38:47.495Z,21.11
2022-11-05T09:41:25.353Z,21.21
2022-11-05T09:43:57.909Z,21.31
2022-11-05T09:46:27.829Z,21.36
2022-11-05T09:49:00.611Z,21.19
2022-11-05T09:51:27.526Z,21.41
2022-11-05T09:53:57.999Z,21.41
2022-11-05T09:56:29.466Z,21.63
2022-11-05T09:59:03.459Z,22.10
2022-11-05T10:01:36.191Z,22.72
2022-11-05T10:04:16.325Z,23.44
2022-11-05T10:06:49.186Z,24.16
2022-11-05T10:09:25.018Z,24.73
2022-11-05T10:11:58.946Z,25.41
2022-11-05T10:14:33.664Z,26.16
2022-11-05T10:20:18.334Z,27.52
2022-11-05T10:22:49.326Z,27.92
2022-11-05T10:25:20.641Z,28.37
2022-11-05T10:27:53.399Z,28.84
2022-11-05T10:30:22.330Z,29.18
2022-11-05T10:32:54.590Z,29.52
2022-11-05T10:35:24.571Z,29.70
2022-11-05T10:40:38.372Z,30.69
2022-11-05T10:43:13.185Z,30.99
2022-11-05T10:45:52.590Z,31.34
2022-11-05T10:48:49.752Z,31.56
2022-11-05T10:51:18.569Z,31.63
2022-11-05T10:54:03.593Z,31.73
2022-11-05T10:56:35.726Z,31.76
2022-11-05T10:59:10.908Z,31.74
2022-11-05T11:01:41.247Z,31.67
2022-11-05T11:04:20.402Z,31.58
2022-11-05T11:06:54.424Z,31.51
2022-11-05T11:09:26.461Z,31.68
2022-11-05T11:12:05.467Z,31.78
2022-11-05T11:14:33.385Z,31.87
2022-11-05T11:17:25.298Z,32.02
2022-11-05T11:20:11.283Z,32.01
2022-11-05T11:22:38.316Z,31.97
2022-11-05T11:25:24.067Z,32.33
2022-11-05T11:27:51.727Z,32.66
2022-11-05T11:30:20.660Z,33.02
2022-11-05T11:32:49.703Z,33.34
2022-11-05T11:35:23.634Z,33.53
2022-11-05T11:37:55.372Z,33.68
2022-11-05T11:40:29.334Z,34.08
2022-11-05T11:42:59.708Z,34.31
2022-11-05T11:45:33.277Z,34.32
2022-11-05T11:48:06.161Z,34.35
2022-11-05T11:50:39.142Z,34.52
2022-11-05T11:53:34.553Z,34.69
2022-11-05T11:56:12.853Z,34.63
2022-11-05T11:58:44.614Z,34.57
2022-11-05T12:01:37.078Z,34.40
2022-11-05T12:04:17.854Z,34.48
2022-11-05T12:06:58.881Z,34.64
2022-11-05T12:09:36.997Z,34.52
2022-11-05T12:12:12.020Z,34.42
2022-11-05T12:14:50.912Z,34.31
2022-11-05T12:17:42.558Z,33.98
2022-11-05T12:20:26.716Z,33.41
2022-11-05T12:23:20.002Z,32.86
2022-11-05T12:25:58.236Z,32.52
2022-11-05T12:29:16.554Z,32.08
2022-11-05T12:31:50.188Z,31.03
2022-11-05T12:34:37.672Z,30.15
2022-11-05T12:37:21.925Z,29.40
2022-11-05T12:40:14.771Z,28.76
2022-11-05T12:43:01.840Z,28.10
2022-11-05T12:45:45.097Z,27.15
2022-11-05T12:48:37.361Z,26.19
2022-11-05T12:51:26.396Z,25.47
2022-11-05T12:54:10.871Z,25.10
2022-11-05T12:56:45.293Z,24.65
2022-11-05T12:59:21.935Z,24.40
2022-11-05T13:01:55.894Z,24.09
2022-11-05T13:04:43.975Z,23.82
2022-11-05T13:07:17.905Z,23.77
2022-11-05T13:09:53.021Z,23.46
2022-11-05T13:12:24.553Z,23.36
2022-11-05T13:14:56.774Z,23.27
2022-11-05T13:17:29.471Z,23.20
2022-11-05T13:20:05.574Z,22.96
2022-11-05T13:22:39.056Z,22.99
2022-11-05T13:25:18.320Z,22.82
2022-11-05T13:27:56.408Z,22.68
2022-11-05T13:30:29.737Z,22.58
2022-11-05T13:33:04.119Z,22.49
2022-11-05T13:35:52.751Z,22.61
2022-11-05T13:38:25.672Z,22.73
2022-11-05T13:41:12.187Z,22.76
2022-11-05T13:44:13.641Z,22.73
2022-11-05T13:47:07.206Z,22.82
2022-11-05T13:50:12.319Z,23.06
2022-11-05T13:53:03.684Z,23.19
2022-11-05T13:55:54.477Z,23.37
2022-11-05T13:58:57.691Z,23.56
2022-11-05T14:01:43.870Z,23.75
2022-11-05T14:04:25.263Z,24.01
2022-11-05T14:06:53.542Z,24.29
2022-11-05T14:09:26.627Z,24.72
2022-11-05T14:11:59.011Z,25.11
2022-11-05T14:14:33.345Z,25.42
2022-11-05T14:17:25.425Z,25.69
2022-11-05T14:20:55.913Z,26.18
2022-11-05T14:23:51.114Z,26.20
2022-11-05T14:26:22.701Z,26.06
2022-11-05T14:29:38.210Z,25.86
2022-11-05T14:32:26.206Z,25.40
2022-11-05T14:35:00.883Z,24.84
2022-11-05T14:37:32.077Z,24.70
2022-11-05T14:40:39.955Z,24.21
2022-11-05T14:43:22.888Z,23.60
2022-11-05T14:45:58.635Z,23.05
2022-11-05T14:48:37.393Z,22.65
2022-11-05T14:51:31.484Z,22.28
2022-11-05T14:54:04.158Z,21.96
2022-11-05T14:56:43.998Z,21.86
2022-11-05T14:59:53.341Z,21.80
2022-11-05T15:02:27.263Z,21.72
2022-11-05T15:05:37.862Z,21.59
2022-11-05T15:08:37.871Z,21.38
2022-11-05T15:11:15.310Z,21.19
2022-11-05T15:14:00.365Z,21.15
2022-11-05T15:16:36.215Z,21.03
2022-11-05T15:19:09.404Z,20.72
2022-11-05T15:21:39.832Z,20.63
2022-11-05T15:24:12.551Z,20.51
2022-11-05T15:26:47.554Z,20.48
2022-11-05T15:29:18.355Z,20.54
2022-11-05T15:32:17.337Z,20.47
2022-11-05T15:34:53.821Z,20.44
2022-11-05T15:37:24.241Z,20.45
2022-11-05T15:39:53.955Z,20.44
2022-11-05T15:42:23.578Z,20.40
2022-11-05T15:44:56.871Z,20.39
2022-11-05T15:47:26.130Z,20.43
2022-11-05T15:49:57.582Z,20.45
2022-11-05T15:52:32.489Z,20.37
2022-11-05T15:55:19.261Z,20.39
2022-11-05T15:57:51.274Z,20.30
2022-11-05T16:00:20.772Z,20.24
2022-11-05T16:02:56.743Z,20.26
2022-11-05T16:05:29.318Z,20.21
2022-11-05T16:08:03.819Z,20.23
2022-11-05T16:10:34.062Z,20.23
2022-11-05T16:13:28.631Z,20.29
2022-11-05T16:15:58.038Z,20.20
2022-11-05T16:18:31.405Z,20.27
2022-11-05T16:21:08.446Z,20.33
2022-11-05T16:23:45.969Z,20.33
2022-11-05T16:27:02.231Z,20.26
2022-11-05T16:32:19.516Z,20.24
2022-11-05T16:34:50.047Z,20.16
2022-11-05T16:37:23.537Z,20.08
2022-11-05T16:39:50.589Z,20.06
2022-11-05T16:42:39.665Z,20.12
2022-11-05T16:45:10.875Z,20.10
2022-11-05T16:47:37.678Z,20.06
2022-11-05T16:50:15.893Z,19.87
2022-11-05T16:52:45.291Z,19.85
2022-11-05T16:55:12.792Z,19.83
2022-11-05T16:57:42.324Z,19.87
2022-11-05T17:00:15.093Z,19.75
2022-11-05T17:02:42.427Z,19.65
2022-11-05T17:05:19.510Z,19.66
2022-11-05T17:07:47.980Z,19.55
2022-11-05T17:10:15.669Z,19.45
2022-11-05T17:12:43.233Z,19.27
2022-11-05T17:15:21.359Z,19.27
2022-11-05T17:17:48.630Z,19.11
2022-11-05T17:20:27.499Z,18.98
2022-11-05T17:22:56.399Z,18.91
2022-11-05T17:25:24.331Z,18.86
2022-11-05T17:27:51.609Z,18.87
2022-11-05T17:30:18.865Z,18.87
2022-11-05T17:32:45.913Z,18.91
2022-11-05T17:35:13.623Z,18.86
2022-11-05T17:37:41.741Z,18.81
2022-11-05T17:40:15.343Z,18.83
2022-11-05T17:42:42.418Z,18.84
2022-11-05T17:45:11.803Z,18.83
2022-11-05T17:47:39.499Z,18.80
2022-11-05T17:50:09.798Z,18.88
2022-11-05T17:52:36.986Z,18.81
2022-11-05T17:55:05.163Z,18.83
2022-11-05T17:57:33.545Z,18.59
2022-11-05T18:00:00.505Z,18.67
2022-11-05T18:02:27.712Z,18.76
2022-11-05T18:04:55.049Z,18.84
2022-11-05T18:07:22.000Z,18.91
2022-11-05T18:09:49.396Z,18.87
2022-11-05T18:12:16.347Z,18.78
2022-11-05T18:14:44.625Z,18.70
2022-11-05T18:17:15.633Z,18.67
2022-11-05T18:19:43.127Z,18.63
2022-11-05T18:22:09.892Z,18.67
2022-11-05T18:24:36.879Z,18.60
2022-11-05T18:27:04.084Z,18.56
2022-11-05T18:29:30.870Z,18.50
2022-11-05T18:31:59.355Z,18.55
2022-11-05T18:34:26.290Z,18.56
2022-11-05T18:36:56.400Z,18.53
2022-11-05T18:39:23.863Z,18.60
2022-11-05T18:41:50.873Z,18.46
2022-11-05T18:44:17.754Z,18.32
2022-11-05T18:46:57.764Z,18.29
2022-11-05T18:49:26.742Z,18.26
2022-11-05T18:51:53.774Z,18.29
2022-11-05T18:54:21.058Z,18.13
2022-11-05T18:56:48.187Z,18.16
2022-11-05T19:02:06.571Z,18.15
2022-11-05T19:04:36.811Z,18.16
2022-11-05T19:07:05.859Z,18.16
2022-11-05T19:09:34.568Z,18.19
2022-11-05T19:12:02.388Z,18.30
2022-11-05T19:14:29.492Z,18.25
2022-11-05T19:16:56.603Z,18.12
2022-11-05T19:19:23.395Z,18.13
2022-11-05T19:21:52.392Z,18.01
2022-11-05T19:24:19.569Z,18.04
2022-11-05T19:26:46.482Z,18.08
2022-11-05T19:29:13.395Z,18.01
2022-11-05T19:31:40.403Z,18.19
2022-11-05T19:34:07.296Z,18.12
2022-11-05T19:36:34.594Z,18.16
2022-11-05T19:39:06.604Z,18.15
2022-11-05T19:41:33.381Z,18.15
2022-11-05T19:44:00.684Z,18.08
2022-11-05T19:46:29.064Z,18.21
2022-11-05T19:48:56.466Z,18.01
2022-11-05T19:51:26.655Z,18.02
2022-11-05T19:53:54.515Z,18.18
2022-11-05T19:56:26.166Z,18.22
2022-11-05T19:58:54.290Z,18.29
2022-11-05T20:01:24.342Z,18.30
2022-11-05T20:03:52.195Z,18.35
2022-11-05T20:06:22.842Z,18.36
2022-11-05T20:11:38.749Z,18.28
2022-11-05T20:14:06.978Z,18.16
2022-11-05T20:16:36.069Z,18.08
2022-11-05T20:19:04.839Z,18.09
2022-11-05T20:21:31.798Z,17.91
2022-11-05T20:23:58.711Z,18.06
2022-11-05T20:26:26.436Z,18.05
2022-11-05T20:28:55.267Z,18.05
2022-11-05T20:31:22.873Z,18.04
2022-11-05T20:33:49.932Z,18.09
2022-11-05T20:36:19.956Z,18.06
2022-11-05T20:41:40.610Z,17.95
2022-11-05T20:44:08.918Z,18.01
2022-11-05T20:46:35.912Z,17.92
2022-11-05T20:49:03.069Z,17.81
2022-11-05T20:51:29.945Z,17.94
2022-11-05T20:54:01.237Z,18.01
2022-11-05T20:56:32.926Z,17.98
2022-11-05T20:59:00.904Z,17.95
2022-11-05T21:01:32.672Z,17.96
2022-11-05T21:03:59.922Z,17.94
2022-11-05T21:06:26.862Z,17.82
2022-11-05T21:08:54.215Z,17.95
2022-11-05T21:11:21.680Z,17.75
2022-11-05T21:13:49.318Z,17.78
2022-11-05T21:16:19.124Z,17.74
2022-11-05T21:18:47.961Z,17.78
2022-11-05T21:21:18.920Z,17.67
2022-11-05T21:23:48.097Z,17.43
2022-11-05T21:26:16.070Z,17.43
2022-11-05T21:28:45.835Z,17.55
2022-11-05T21:31:12.887Z,17.50
2022-11-05T21:33:39.983Z,17.45
2022-11-05T21:36:11.411Z,17.55
2022-11-05T21:38:38.922Z,17.27
2022-11-05T21:41:07.582Z,17.41
2022-11-05T21:43:35.192Z,17.44
2022-11-05T21:46:03.687Z,17.50
2022-11-05T21:48:31.691Z,17.53
2022-11-05T21:50:58.544Z,17.58
2022-11-05T21:53:27.399Z,17.53
2022-11-05T21:55:54.301Z,17.67
2022-11-05T21:58:21.463Z,17.63
2022-11-05T22:00:48.354Z,17.71
2022-11-05T22:03:15.227Z,17.74
2022-11-05T22:05:42.159Z,17.78
2022-11-05T22:08:09.550Z,17.54
2022-11-05T22:10:37.825Z,17.63
2022-11-05T22:13:04.700Z,17.60
2022-11-05T22:15:31.754Z,17.54
2022-11-05T22:17:58.500Z,17.50
2022-11-05T22:20:25.495Z,17.53
2022-11-05T22:22:53.552Z,17.60
2022-11-05T22:25:20.887Z,17.63
2022-11-05T22:27:49.076Z,17.48
2022-11-05T22:30:16.371Z,17.54
2022-11-05T22:32:43.278Z,17.68
2022-11-05T22:35:10.342Z,17.48
2022-11-05T22:37:37.254Z,17.40
2022-11-05T22:40:05.072Z,17.41
2022-11-05T22:42:31.974Z,17.38
2022-11-05T22:45:00.695Z,17.53
2022-11-05T22:47:27.516Z,17.55
2022-11-05T22:49:54.598Z,17.68
2022-11-05T22:52:21.447Z,17.47
2022-11-05T22:54:48.573Z,17.51
2022-11-05T22:57:15.932Z,17.51
2022-11-05T22:59:42.836Z,17.57
2022-11-05T23:02:10.991Z,17.45
2022-11-05T23:04:38.991Z,17.48
2022-11-05T23:07:06.631Z,17.55
2022-11-05T23:09:35.247Z,17.43
2022-11-05T23:12:05.030Z,17.58
2022-11-05T23:14:32.160Z,17.71
2022-11-05T23:19:52.197Z,17.91
2022-11-05T23:22:23.551Z,17.95
2022-11-05T23:24:50.700Z,18.01
2022-11-05T23:27:18.048Z,18.01
2022-11-05T23:29:44.965Z,18.04
2022-11-05T23:32:11.902Z,18.05
2022-11-05T23:34:39.329Z,18.09
2022-11-05T23:37:08.386Z,18.12
2022-11-05T23:39:41.216Z,18.15
2022-11-05T23:42:10.302Z,18.05
2022-11-05T23:44:37.262Z,18.02
2022-11-05T23:47:04.302Z,17.98
2022-11-05T23:49:31.652Z,18.02
2022-11-05T23:51:58.450Z,18.12
2022-11-05T23:54:26.752Z,18.15
2022-11-05T23:56:53.738Z,18.18
2022-11-05T23:59:20.750Z,18.18
